Time;durP1;ratioP1;P1;durP2;ratioP2;P2;SDS_P1;SDS_P2;PMS_P1;PMS_P2;Temp;Humidity;BMP_temperature;BMP_pressure;BME280_temperature;BME280_humidity;BME280_pressure;Samples;Min_cycle;Max_cycle;Signal;HPM_P1;HPM_P2
2021/03/01 00:01:03;;;;;;;;;;;;;;;18.88;65.21;101918.75;5088045;28;1239;-71
2021/03/01 00:03:30;;;;;;;;;;;;;;;18.87;65.25;101919.72;5086810;28;767;-71
2021/03/01 00:05:56;;;;;;;;;;;;;;;18.90;65.37;101921.38;5088118;28;1278;-70
2021/03/01 00:08:23;;;;;;;;;;;;;;;18.92;65.67;101920.38;5087543;28;1969;-71
2021/03/01 00:10:49;;;;;;;;;;;;;;;18.93;65.64;101924.75;5087686;28;1713;-70
2021/03/01 00:13:22;;;;;;;;;;;;;;;18.91;65.36;101918.66;5053833;28;1455;-72
2021/03/01 00:15:49;;;;;;;;;;;;;;;18.91;65.39;101925.69;5087998;28;1358;-72
2021/03/01 00:18:15;;;;;;;;;;;;;;;18.93;65.54;101919.47;5065797;28;755;-73
2021/03/01 00:20:41;;;;;;;;;;;;;;;18.94;65.23;101918.53;5070919;28;1267;-74
2021/03/01 00:23:10;;;;;;;;;;;;;;;18.92;65.30;101924.78;5089677;28;848;-73
2021/03/01 00:25:41;;;;;;;;;;;;;;;18.89;65.13;101925.78;5089837;28;1232;-73
2021/03/01 00:28:09;;;;;;;;;;;;;;;18.86;64.89;101920.63;5071459;28;1981;-75
2021/03/01 00:30:39;;;;;;;;;;;;;;;18.86;64.83;101923.25;5070978;28;1477;-73
2021/03/01 00:33:08;;;;;;;;;;;;;;;18.84;64.46;101922.47;5071305;28;778;-73
2021/03/01 00:35:35;;;;;;;;;;;;;;;18.86;64.10;101925.91;5071105;28;1374;-74
2021/03/01 00:38:01;;;;;;;;;;;;;;;18.85;63.67;101929.44;5089065;28;758;-74
2021/03/01 00:40:29;;;;;;;;;;;;;;;18.85;63.66;101931.22;5070668;28;1401;-75
2021/03/01 00:42:57;;;;;;;;;;;;;;;18.84;63.52;101922.47;5089414;28;1016;-75
2021/03/01 00:45:23;;;;;;;;;;;;;;;18.84;63.18;101929.53;5089354;28;1290;-74
2021/03/01 00:47:49;;;;;;;;;;;;;;;18.83;63.24;101923.38;5088872;28;1910;-74
2021/03/01 00:50:16;;;;;;;;;;;;;;;18.83;63.51;101925.16;5087220;28;1303;-74
2021/03/01 00:52:43;;;;;;;;;;;;;;;18.81;63.73;101916.44;5088827;28;755;-74
2021/03/01 00:55:09;;;;;;;;;;;;;;;18.81;64.13;101921.72;5089056;28;1287;-75
2021/03/01 00:57:35;;;;;;;;;;;;;;;18.79;64.47;101926.19;5088848;28;804;-74
2021/03/01 01:00:07;;;;;;;;;;;;;;;18.76;64.49;101924.53;5088944;28;1374;-75
2021/03/01 01:02:34;;;;;;;;;;;;;;;18.75;64.79;101916.69;5089242;28;1052;-75
2021/03/01 01:05:01;;;;;;;;;;;;;;;18.70;65.03;101924.75;5088774;28;1283;-74
2021/03/01 01:07:27;;;;;;;;;;;;;;;18.67;65.21;101922.25;5088561;28;1905;-74
2021/03/01 01:09:53;;;;;;;;;;;;;;;18.66;65.12;101933.72;5088743;28;1385;-75
2021/03/01 01:12:22;;;;;;;;;;;;;;;18.64;65.09;101925.00;5088684;28;1353;-75
2021/03/01 01:14:51;;;;;;;;;;;;;;;18.62;65.37;101921.56;5073460;28;1350;-75
2021/03/01 01:17:18;;;;;;;;;;;;;;;18.59;65.33;101923.44;5092609;28;998;-75
2021/03/01 01:19:44;;;;;;;;;;;;;;;18.58;65.32;101938.41;5092556;28;1353;-74
2021/03/01 01:22:11;;;;;;;;;;;;;;;18.58;65.31;101930.50;5073800;28;1402;-73
2021/03/01 01:24:37;;;;;;;;;;;;;;;18.57;65.27;101927.94;5092489;28;1052;-73
2021/03/01 01:27:03;;;;;;;;;;;;;;;18.55;65.43;101931.47;5092013;28;1989;-73
2021/03/01 01:29:30;;;;;;;;;;;;;;;18.54;65.33;101924.47;5092134;28;1139;-74
2021/03/01 01:31:56;;;;;;;;;;;;;;;18.53;65.40;101928.06;5092046;28;1315;-74
2021/03/01 01:34:22;;;;;;;;;;;;;;;18.52;65.46;101928.09;5092082;28;1052;-74
2021/03/01 01:36:49;;;;;;;;;;;;;;;18.50;65.48;101930.81;5092120;28;1220;-74
2021/03/01 01:39:15;;;;;;;;;;;;;;;18.51;65.53;101921.13;5091937;28;1192;-74
2021/03/01 01:41:42;;;;;;;;;;;;;;;18.49;65.48;101920.28;5073588;28;1446;-74
2021/03/01 01:44:08;;;;;;;;;;;;;;;18.48;65.52;101924.66;5092445;28;937;-74
2021/03/01 01:46:35;;;;;;;;;;;;;;;18.48;65.67;101923.84;5091831;28;1220;-74
2021/03/01 01:49:01;;;;;;;;;;;;;;;18.48;65.65;101927.31;5091745;28;1965;-74
2021/03/01 01:51:27;;;;;;;;;;;;;;;18.46;65.77;101925.66;5091924;28;1322;-74
2021/03/01 01:53:54;;;;;;;;;;;;;;;18.45;65.74;101931.88;5073298;28;1392;-75
2021/03/01 01:56:20;;;;;;;;;;;;;;;18.43;65.78;101931.91;5073527;28;1350;-75
2021/03/01 01:58:46;;;;;;;;;;;;;;;18.43;65.89;101925.75;5091862;28;794;-74
2021/03/01 02:01:13;;;;;;;;;;;;;;;18.42;65.90;101924.06;5092067;28;1289;-74
2021/03/01 02:03:45;;;;;;;;;;;;;;;18.42;65.81;101921.44;5091788;28;777;-74
2021/03/01 02:06:18;;;;;;;;;;;;;;;18.41;65.93;101923.19;5091857;28;1390;-74
2021/03/01 02:09:08;;;;;;;;;;;;;;;18.40;65.87;101931.16;5091308;28;1925;-74
2021/03/01 02:11:38;;;;;;;;;;;;;;;18.39;66.00;101916.25;5083242;28;1796;-74
2021/03/01 02:14:24;;;;;;;;;;;;;;;18.38;66.18;101922.44;5091247;28;1157;-74
2021/03/01 02:16:50;;;;;;;;;;;;;;;18.37;65.99;101915.44;5052477;28;1355;-74
2021/03/01 02:19:19;;;;;;;;;;;;;;;18.35;66.29;101912.88;5091090;28;1140;-73
2021/03/01 02:21:46;;;;;;;;;;;;;;;18.36;66.23;101919.84;5090856;28;1306;-75
2021/03/01 02:24:14;;;;;;;;;;;;;;;18.34;66.22;101913.78;5072681;28;1201;-74
2021/03/01 02:26:42;;;;;;;;;;;;;;;18.33;66.22;101908.59;5072291;28;1311;-74
2021/03/01 02:29:10;;;;;;;;;;;;;;;18.33;66.29;101908.59;5072888;28;1262;-74
2021/03/01 02:31:38;;;;;;;;;;;;;;;18.30;66.24;101898.97;5091146;28;1324;-73
2021/03/01 02:34:06;;;;;;;;;;;;;;;18.29;66.36;101896.41;5091036;28;904;-73
2021/03/01 02:36:38;;;;;;;;;;;;;;;18.30;66.34;101898.16;5090859;28;1310;-73
2021/03/01 02:39:05;;;;;;;;;;;;;;;18.29;66.50;101899.91;5072598;28;1063;-73
2021/03/01 02:41:32;;;;;;;;;;;;;;;18.28;66.48;101899.97;5090481;28;1303;-73
2021/03/01 02:43:59;;;;;;;;;;;;;;;18.27;66.39;101903.53;5090690;28;1071;-73
2021/03/01 02:46:25;;;;;;;;;;;;;;;18.28;66.32;101907.88;5090383;28;1315;-73
2021/03/01 02:48:53;;;;;;;;;;;;;;;18.27;66.37;101898.25;5090613;28;2333;-73
2021/03/01 02:51:20;;;;;;;;;;;;;;;18.25;66.41;101898.28;5090720;28;1212;-74
2021/03/01 02:53:47;;;;;;;;;;;;;;;18.26;66.52;101896.53;5072274;28;1307;-73
2021/03/01 02:56:15;;;;;;;;;;;;;;;18.24;66.46;101887.81;5090649;28;1197;-73
2021/03/01 02:58:41;;;;;;;;;;;;;;;18.24;66.52;101903.66;5072103;28;1079;-73
2021/03/01 03:01:09;;;;;;;;;;;;;;;18.25;66.48;101900.06;5090476;28;1243;-73
2021/03/01 03:03:35;;;;;;;;;;;;;;;18.23;66.45;101897.50;5090155;28;832;-73
2021/03/01 03:06:03;;;;;;;;;;;;;;;18.23;66.57;101904.56;5090674;28;1350;-73
2021/03/01 03:08:31;;;;;;;;;;;;;;;18.22;66.51;101900.19;5090325;28;1955;-74
2021/03/01 03:10:57;;;;;;;;;;;;;;;18.22;66.64;101892.28;5084259;28;1382;-74
2021/03/01 03:13:25;;;;;;;;;;;;;;;18.20;66.68;101892.34;5088390;28;1311;-74
2021/03/01 03:15:53;;;;;;;;;;;;;;;18.20;66.63;101896.75;5090242;28;1370;-73
2021/03/01 03:18:22;;;;;;;;;;;;;;;18.20;66.54;101894.13;5088361;28;1107;-74
2021/03/01 03:20:49;;;;;;;;;;;;;;;18.19;66.77;101893.25;5088630;28;1349;-74
2021/03/01 03:23:16;;;;;;;;;;;;;;;18.20;66.56;101900.25;5088461;28;1343;-74
2021/03/01 03:25:42;;;;;;;;;;;;;;;18.19;66.60;101887.09;5088228;28;1350;-74
2021/03/01 03:28:09;;;;;;;;;;;;;;;18.18;66.75;101882.78;5089508;28;1965;-74
2021/03/01 03:30:36;;;;;;;;;;;;;;;18.18;66.75;101885.41;5089973;28;1275;-75
2021/03/01 03:33:03;;;;;;;;;;;;;;;18.17;66.54;101884.53;5089566;28;781;-75
2021/03/01 03:35:30;;;;;;;;;;;;;;;18.17;66.55;101889.81;5088110;28;1279;-75
2021/03/01 03:38:08;;;;;;;;;;;;;;;18.16;66.73;101884.59;5089346;28;932;-74
2021/03/01 03:40:34;;;;;;;;;;;;;;;18.17;66.75;101894.22;5089668;28;1307;-74
2021/03/01 03:43:02;;;;;;;;;;;;;;;18.15;66.59;101893.44;5089390;28;829;-74
2021/03/01 03:45:28;;;;;;;;;;;;;;;18.16;66.54;101896.00;5089497;28;1308;-75
2021/03/01 03:47:57;;;;;;;;;;;;;;;18.14;66.55;101897.84;5089226;28;1975;-75
2021/03/01 03:50:30;;;;;;;;;;;;;;;18.14;66.53;101895.19;5089676;28;1283;-74
2021/03/01 03:52:59;;;;;;;;;;;;;;;18.15;66.65;101896.06;5089639;28;796;-76
2021/03/01 03:55:27;;;;;;;;;;;;;;;18.13;66.67;101893.47;5087624;28;1317;-76
2021/03/01 03:57:55;;;;;;;;;;;;;;;18.13;66.66;101892.59;5087763;28;1437;-75
2021/03/01 04:00:22;;;;;;;;;;;;;;;18.13;66.54;101890.84;5089411;28;1255;-76
2021/03/01 04:02:51;;;;;;;;;;;;;;;18.13;66.56;101890.84;5089300;28;930;-74
2021/03/01 04:05:18;;;;;;;;;;;;;;;18.13;66.69;101896.09;5089344;28;1231;-73
2021/03/01 04:07:44;;;;;;;;;;;;;;;18.13;66.41;101890.84;5089172;28;1906;-74
2021/03/01 04:10:11;;;;;;;;;;;;;;;18.12;66.56;101894.38;5085122;28;1631;-74
2021/03/01 04:12:38;;;;;;;;;;;;;;;18.11;66.60;101890.03;5088744;28;1000;-74
2021/03/01 04:15:07;;;;;;;;;;;;;;;18.11;66.76;101891.81;5099563;28;1287;-73
2021/03/01 04:17:37;;;;;;;;;;;;;;;18.10;66.62;101890.94;5110066;28;1093;-73
2021/03/01 04:20:06;;;;;;;;;;;;;;;18.11;66.61;101886.53;5092433;28;1316;-73
2021/03/01 04:22:33;;;;;;;;;;;;;;;18.12;66.53;101888.28;5089422;28;969;-73
2021/03/01 04:25:00;;;;;;;;;;;;;;;18.11;66.71;101889.19;5070683;28;1361;-73
2021/03/01 04:27:27;;;;;;;;;;;;;;;18.09;66.71;101885.75;5088682;28;1909;-74
2021/03/01 04:29:54;;;;;;;;;;;;;;;18.10;66.71;101882.16;5088706;28;1220;-74
2021/03/01 04:32:21;;;;;;;;;;;;;;;18.08;66.60;101878.75;5089103;28;805;-74
2021/03/01 04:34:53;;;;;;;;;;;;;;;18.09;66.66;101875.19;5089719;28;1330;-73
2021/03/01 04:37:19;;;;;;;;;;;;;;;18.08;66.69;101878.75;5089685;28;997;-74
2021/03/01 04:39:46;;;;;;;;;;;;;;;18.07;66.68;101877.00;5089577;28;1286;-74
2021/03/01 04:42:12;;;;;;;;;;;;;;;18.07;66.79;101882.28;5090171;28;1256;-73
2021/03/01 04:44:57;;;;;;;;;;;;;;;18.08;66.65;101886.66;5109230;28;1456;-73
2021/03/01 04:47:24;;;;;;;;;;;;;;;18.07;66.74;101884.91;5109164;28;1969;-73
2021/03/01 04:49:51;;;;;;;;;;;;;;;18.07;66.66;101891.06;5112031;28;1297;-73
2021/03/01 04:52:18;;;;;;;;;;;;;;;18.07;66.65;101887.56;5113005;28;837;-73
2021/03/01 04:54:45;;;;;;;;;;;;;;;18.06;66.56;101885.81;5113124;28;1361;-73
2021/03/01 04:57:12;;;;;;;;;;;;;;;18.07;66.45;101890.19;5094292;28;1264;-72
2021/03/01 04:59:42;;;;;;;;;;;;;;;18.06;66.57;101889.31;5113148;28;1397;-73
2021/03/01 05:02:09;;;;;;;;;;;;;;;18.05;66.56;101887.63;5111159;28;1644;-74
2021/03/01 05:04:36;;;;;;;;;;;;;;;18.05;66.54;101889.41;5112670;28;1124;-73
2021/03/01 05:07:04;;;;;;;;;;;;;;;18.04;66.56;101885.91;5112657;28;1990;-73
2021/03/01 05:09:31;;;;;;;;;;;;;;;18.03;66.41;101889.44;5112649;28;1153;-73
2021/03/01 05:11:57;;;;;;;;;;;;;;;18.02;66.51;101888.56;5110018;28;1755;-73
2021/03/01 05:14:23;;;;;;;;;;;;;;;18.02;66.42;101893.00;5106025;28;1029;-73
2021/03/01 05:16:50;;;;;;;;;;;;;;;18.03;66.50;101890.31;5108782;28;1228;-72
2021/03/01 05:19:16;;;;;;;;;;;;;;;18.03;66.39;101894.72;5107967;28;1633;-73
2021/03/01 05:21:44;;;;;;;;;;;;;;;18.01;66.42;101893.91;5083199;28;1357;-73
2021/03/01 05:24:11;;;;;;;;;;;;;;;18.00;66.38;101898.31;5101378;28;1031;-73
2021/03/01 05:26:37;;;;;;;;;;;;;;;18.02;66.38;101898.28;5092225;28;1224;-73
2021/03/01 05:29:04;;;;;;;;;;;;;;;18.00;66.46;101898.31;5075544;28;1906;-74
2021/03/01 05:31:30;;;;;;;;;;;;;;;17.99;66.38;101896.59;5112266;28;1216;-74
2021/03/01 05:33:57;;;;;;;;;;;;;;;18.00;66.39;101897.47;5112278;28;1052;-75
2021/03/01 05:36:23;;;;;;;;;;;;;;;18.00;66.35;101897.47;5094206;28;1452;-74
2021/03/01 05:38:49;;;;;;;;;;;;;;;18.01;66.51;101899.19;5112233;28;821;-74
2021/03/01 05:41:17;;;;;;;;;;;;;;;17.98;66.47;101892.25;5112507;28;1168;-74
2021/03/01 05:43:45;;;;;;;;;;;;;;;17.99;66.27;101893.94;5083819;28;1424;-73
2021/03/01 05:46:11;;;;;;;;;;;;;;;17.99;66.26;101893.13;5094564;28;1276;-73
2021/03/01 05:48:40;;;;;;;;;;;;;;;18.00;66.38;101898.31;5073711;28;1985;-74
2021/03/01 05:51:06;;;;;;;;;;;;;;;17.97;66.24;101890.53;5091837;28;1370;-75
2021/03/01 05:53:37;;;;;;;;;;;;;;;17.97;66.30;101894.94;5091968;28;754;-72
2021/03/01 05:56:04;;;;;;;;;;;;;;;17.96;66.24;101901.13;5100276;28;1275;-72
2021/03/01 05:58:30;;;;;;;;;;;;;;;17.95;66.17;101902.91;5111820;28;1026;-72
2021/03/01 06:00:59;;;;;;;;;;;;;;;17.96;66.14;101907.25;5111009;28;1370;-73
2021/03/01 06:03:27;;;;;;;;;;;;;;;17.96;66.23;101898.50;5111886;28;774;-74
2021/03/01 06:05:54;;;;;;;;;;;;;;;17.96;66.31;101903.78;5112103;28;1275;-74
2021/03/01 06:08:21;;;;;;;;;;;;;;;17.95;66.26;101902.91;5092984;28;1910;-74
2021/03/01 06:10:47;;;;;;;;;;;;;;;17.93;66.35;101903.88;5093426;28;1388;-75
2021/03/01 06:13:15;;;;;;;;;;;;;;;17.93;66.36;101899.44;5111560;28;808;-74
2021/03/01 06:15:42;;;;;;;;;;;;;;;17.94;66.22;101901.19;5111782;28;1361;-74
2021/03/01 06:18:12;;;;;;;;;;;;;;;17.94;66.33;101910.84;5093104;28;829;-75
2021/03/01 06:20:40;;;;;;;;;;;;;;;17.93;66.26;101909.16;5111371;28;1295;-75
2021/03/01 06:23:07;;;;;;;;;;;;;;;17.94;66.20;101906.44;5090732;28;790;-73
2021/03/01 06:25:34;;;;;;;;;;;;;;;17.92;66.28;101910.94;5072018;28;1264;-73
2021/03/01 06:28:04;;;;;;;;;;;;;;;17.91;66.22;101906.56;5072237;28;1902;-73
2021/03/01 06:30:32;;;;;;;;;;;;;;;17.91;66.22;101914.47;5090247;28;1287;-73
2021/03/01 06:33:03;;;;;;;;;;;;;;;17.92;66.15;101918.84;5092096;28;1530;-73
2021/03/01 06:35:31;;;;;;;;;;;;;;;17.93;66.33;101917.91;5080051;28;1310;-72
2021/03/01 06:38:16;;;;;;;;;;;;;;;17.96;66.14;101916.97;5088094;28;1159;-68
2021/03/01 06:40:43;;;;;;;;;;;;;;;17.94;66.00;101922.25;5089732;28;1358;-69
2021/03/01 06:43:16;;;;;;;;;;;;;;;17.92;66.29;101924.09;5088016;28;1068;-70
2021/03/01 06:45:42;;;;;;;;;;;;;;;18.08;66.87;101928.84;5072131;28;1291;-71
2021/03/01 06:48:09;;;;;;;;;;;;;;;18.11;65.77;101924.31;5072233;28;1981;-67
2021/03/01 06:50:44;;;;;;;;;;;;;;;18.13;65.51;101930.38;5072064;28;1272;-71
2021/03/01 06:53:11;;;;;;;;;;;;;;;18.14;65.40;101928.63;5089974;28;762;-71
2021/03/01 06:55:52;;;;;;;;;;;;;;;18.17;65.33;101923.22;5070578;28;1662;-78
2021/03/01 06:58:19;;;;;;;;;;;;;;;18.17;65.16;101923.22;5090116;28;856;-76
2021/03/01 07:00:46;;;;;;;;;;;;;;;18.29;66.30;101928.94;5055289;28;1355;-74
2021/03/01 07:03:23;;;;;;;;;;;;;;;18.42;65.52;101929.34;5090057;28;1013;-71
2021/03/01 07:05:50;;;;;;;;;;;;;;;18.31;64.81;101927.09;5090317;28;1279;-70
2021/03/01 07:08:36;;;;;;;;;;;;;;;18.28;64.81;101936.88;5089342;28;1917;-70
2021/03/01 07:11:23;;;;;;;;;;;;;;;18.26;64.53;101929.03;5089539;28;1428;-71
2021/03/01 07:13:52;;;;;;;;;;;;;;;18.25;64.47;101931.72;5089758;28;778;-70
2021/03/01 07:16:19;;;;;;;;;;;;;;;18.25;64.47;101924.66;5089385;28;1224;-71
2021/03/01 07:18:45;;;;;;;;;;;;;;;18.31;64.72;101928.84;5071721;28;840;-70
2021/03/01 07:21:12;;;;;;;;;;;;;;;18.36;65.08;101932.22;5071072;28;1365;-71
2021/03/01 07:23:40;;;;;;;;;;;;;;;18.36;65.11;101934.84;5089795;28;941;-69
2021/03/01 07:26:08;;;;;;;;;;;;;;;18.32;64.54;101925.31;5089913;28;1393;-69
2021/03/01 07:28:36;;;;;;;;;;;;;;;18.39;65.30;101940.00;5089214;28;1914;-70
2021/03/01 07:31:04;;;;;;;;;;;;;;;18.43;64.77;101931.03;5070673;28;1275;-71
2021/03/01 07:33:31;;;;;;;;;;;;;;;18.40;64.87;101941.72;5070935;28;1004;-69
2021/03/01 07:35:58;;;;;;;;;;;;;;;18.33;64.15;101935.78;5088608;28;1265;-70
2021/03/01 07:38:24;;;;;;;;;;;;;;;18.32;63.93;101947.28;5053676;28;1195;-70
2021/03/01 07:40:51;;;;;;;;;;;;;;;18.43;64.77;101945.09;5089372;28;1334;-70
2021/03/01 07:43:18;;;;;;;;;;;;;;;18.48;64.84;101950.22;5089358;28;780;-72
2021/03/01 07:45:45;;;;;;;;;;;;;;;18.43;65.61;101949.50;5089117;28;1306;-71
2021/03/01 07:48:12;;;;;;;;;;;;;;;18.39;65.04;101950.56;5070197;28;1910;-76
2021/03/01 07:50:41;;;;;;;;;;;;;;;18.36;64.50;101948.03;5089149;28;1303;-74
2021/03/01 07:53:28;;;;;;;;;;;;;;;18.52;63.53;101949.19;5089270;28;826;-68
2021/03/01 07:56:18;;;;;;;;;;;;;;;18.43;61.99;101941.59;5089131;28;1303;-68
2021/03/01 07:59:01;;;;;;;;;;;;;;;18.35;63.02;101948.94;5088797;28;808;-67
2021/03/01 08:01:27;;;;;;;;;;;;;;;18.49;64.29;101946.69;5088850;28;1232;-69
2021/03/01 08:03:54;;;;;;;;;;;;;;;18.49;63.39;101949.31;5088957;28;1146;-69
2021/03/01 08:06:21;;;;;;;;;;;;;;;18.39;63.21;101943.47;5070529;28;1229;-68
2021/03/01 08:08:51;;;;;;;;;;;;;;;18.36;63.01;101948.03;5070123;28;1910;-68
2021/03/01 08:11:39;;;;;;;;;;;;;;;18.35;62.75;101943.66;5088915;28;1600;-68
2021/03/01 08:14:12;;;;;;;;;;;;;;;18.34;62.81;101940.16;5070084;28;1636;-68
2021/03/01 08:16:38;;;;;;;;;;;;;;;18.34;62.63;101940.16;5088831;28;1319;-68
2021/03/01 08:19:05;;;;;;;;;;;;;;;18.32;62.51;101942.00;5070069;28;1167;-69
2021/03/01 08:21:50;;;;;;;;;;;;;;;18.31;62.36;101942.91;5088834;28;1333;-68
2021/03/01 08:24:35;;;;;;;;;;;;;;;18.30;62.62;101945.63;5087746;28;909;-69
2021/03/01 08:27:21;;;;;;;;;;;;;;;18.25;63.07;101943.13;5070745;28;1319;-67
2021/03/01 08:30:07;;;;;;;;;;;;;;;18.23;63.20;101952.88;5088805;28;1279;-69
2021/03/01 08:32:34;;;;;;;;;;;;;;;18.22;63.57;101952.94;5088411;28;1378;-69
2021/03/01 08:35:19;;;;;;;;;;;;;;;18.19;63.62;101953.91;5088895;28;1279;-68
2021/03/01 08:37:46;;;;;;;;;;;;;;;18.17;63.68;101946.97;5070485;28;818;-69
2021/03/01 08:40:19;;;;;;;;;;;;;;;18.16;63.95;101955.78;5088524;28;1271;-69
2021/03/01 08:42:47;;;;;;;;;;;;;;;18.14;63.80;101957.63;5070304;28;715;-69
2021/03/01 08:45:20;;;;;;;;;;;;;;;18.10;63.83;101948.97;5088196;28;1283;-69
2021/03/01 08:47:47;;;;;;;;;;;;;;;18.10;64.07;101954.22;5070511;28;1975;-69
2021/03/01 08:50:13;;;;;;;;;;;;;;;18.10;64.07;101953.38;5088775;28;1394;-69
2021/03/01 08:52:45;;;;;;;;;;;;;;;18.08;63.87;101949.94;5088376;28;1086;-69
2021/03/01 08:55:12;;;;;;;;;;;;;;;18.08;63.99;101955.22;5088498;28;1283;-69
2021/03/01 08:58:01;;;;;;;;;;;;;;;18.20;63.42;101962.69;5069836;28;1278;-72
2021/03/01 09:00:28;;;;;;;;;;;;;;;18.31;63.97;101960.50;5088371;28;1402;-74
2021/03/01 09:03:15;;;;;;;;;;;;;;;18.30;63.87;101956.19;5069967;28;1282;-70
2021/03/01 09:05:43;;;;;;;;;;;;;;;18.29;63.77;101959.72;5069651;28;1280;-70
2021/03/01 09:08:10;;;;;;;;;;;;;;;18.31;64.22;101957.88;5087955;28;1991;-74
2021/03/01 09:10:41;;;;;;;;;;;;;;;18.23;63.58;101959.94;5051678;28;1467;-73
2021/03/01 09:13:09;;;;;;;;;;;;;;;18.18;63.52;101961.88;5067529;28;932;-75
2021/03/01 09:15:36;;;;;;;;;;;;;;;18.22;63.79;101974.03;5092632;28;1563;-73
2021/03/01 09:18:04;;;;;;;;;;;;;;;18.17;63.57;101968.06;5072004;28;1134;-73
2021/03/01 09:20:37;;;;;;;;;;;;;;;18.14;63.81;101970.81;5087735;28;1203;-75
2021/03/01 09:23:05;;;;;;;;;;;;;;;18.20;63.70;101965.31;5087940;28;841;-72
2021/03/01 09:25:32;;;;;;;;;;;;;;;18.17;63.66;101960.16;5087790;28;1342;-72
2021/03/01 09:27:59;;;;;;;;;;;;;;;18.22;64.37;101960.84;5087927;28;1922;-73
2021/03/01 09:30:26;;;;;;;;;;;;;;;18.17;64.22;101974.22;5088715;28;1358;-73
2021/03/01 09:32:56;;;;;;;;;;;;;;;18.19;64.29;101964.47;5090659;28;766;-75
2021/03/01 09:35:23;;;;;;;;;;;;;;;18.08;63.74;101965.75;5092493;28;1397;-73
2021/03/01 09:38:04;;;;;;;;;;;;;;;18.02;63.92;101980.84;5091866;28;844;-71
2021/03/01 09:40:31;;;;;;;;;;;;;;;18.00;64.11;101976.56;5091229;28;1268;-69
2021/03/01 09:43:03;;;;;;;;;;;;;;;17.99;63.95;101980.97;5073526;28;1087;-72
2021/03/01 09:45:35;;;;;;;;;;;;;;;17.97;64.21;101979.28;5092790;28;1382;-71
2021/03/01 09:48:06;;;;;;;;;;;;;;;17.96;64.10;101970.53;5111672;28;1905;-71
2021/03/01 09:50:33;;;;;;;;;;;;;;;17.97;63.89;101974.03;5093262;28;1338;-69
2021/03/01 09:52:59;;;;;;;;;;;;;;;17.95;64.17;101982.00;5093440;28;1130;-70
2021/03/01 09:55:26;;;;;;;;;;;;;;;17.95;64.04;101982.00;5092854;28;1394;-72
2021/03/01 09:57:52;;;;;;;;;;;;;;;17.93;63.78;101973.25;5111479;28;1103;-72
2021/03/01 10:00:19;;;;;;;;;;;;;;;17.92;64.14;101976.84;5111647;28;1350;-72
2021/03/01 10:02:55;;;;;;;;;;;;;;;17.94;64.02;101969.72;5111452;28;1097;-73
2021/03/01 10:05:21;;;;;;;;;;;;;;;17.91;63.92;101977.72;5092672;28;1362;-72
2021/03/01 10:07:54;;;;;;;;;;;;;;;17.91;64.00;101971.59;5111086;28;1988;-72
2021/03/01 10:10:21;;;;;;;;;;;;;;;17.92;63.99;101976.84;5109248;28;1591;-72
2021/03/01 10:12:48;;;;;;;;;;;;;;;17.92;64.00;101975.97;5110870;28;766;-72
2021/03/01 10:15:18;;;;;;;;;;;;;;;17.91;64.01;101971.59;5092299;28;1340;-72
2021/03/01 10:17:45;;;;;;;;;;;;;;;17.90;63.98;101973.38;5072583;28;1201;-70
2021/03/01 10:20:13;;;;;;;;;;;;;;;17.91;63.91;101968.97;5092494;28;1354;-68
2021/03/01 10:22:56;;;;;;;;;;;;;;;17.89;63.88;101955.84;5111052;28;781;-69
2021/03/01 10:25:36;;;;;;;;;;;;;;;17.89;63.84;101958.47;5092521;28;1267;-70
2021/03/01 10:28:23;;;;;;;;;;;;;;;17.88;63.45;101956.75;5110743;28;1926;-71
2021/03/01 10:31:03;;;;;;;;;;;;;;;17.88;63.70;101959.38;5110825;28;1287;-68
2021/03/01 10:33:30;;;;;;;;;;;;;;;17.87;64.00;101960.28;5110625;28;1110;-68
2021/03/01 10:36:14;;;;;;;;;;;;;;;17.87;63.96;101970.84;5110736;28;1352;-69
2021/03/01 10:38:57;;;;;;;;;;;;;;;17.87;63.93;101967.38;5106362;28;1003;-71
2021/03/01 10:41:31;;;;;;;;;;;;;;;17.88;63.97;101964.66;5072433;28;1244;-71
2021/03/01 10:43:58;;;;;;;;;;;;;;;17.86;64.06;101969.13;5096684;28;1084;-72
2021/03/01 10:46:31;;;;;;;;;;;;;;;17.85;64.14;101964.75;5091854;28;1201;-71
2021/03/01 10:48:58;;;;;;;;;;;;;;;17.85;64.03;101964.75;5110369;28;1918;-74
2021/03/01 10:51:25;;;;;;;;;;;;;;;17.84;64.17;101965.66;5092767;28;1347;-73
2021/03/01 10:53:51;;;;;;;;;;;;;;;17.84;63.92;101968.31;5104724;28;1292;-73
2021/03/01 10:56:18;;;;;;;;;;;;;;;17.94;64.19;101971.50;5071720;28;1315;-70
2021/03/01 10:58:45;;;;;;;;;;;;;;;17.95;63.80;101970.59;5072083;28;1048;-73
2021/03/01 11:01:11;;;;;;;;;;;;;;;17.94;64.11;101972.34;5055507;28;1296;-75
2021/03/01 11:03:37;;;;;;;;;;;;;;;17.94;64.17;101968.84;5071299;28;1245;-73
2021/03/01 11:06:04;;;;;;;;;;;;;;;17.96;64.10;101977.59;5071633;28;1390;-74
2021/03/01 11:08:30;;;;;;;;;;;;;;;17.98;63.84;101981.03;5071407;28;1980;-72
2021/03/01 11:10:57;;;;;;;;;;;;;;;18.06;64.25;101965.78;5054953;28;1436;-76
2021/03/01 11:13:23;;;;;;;;;;;;;;;18.03;63.88;101969.41;5054636;28;1321;-73
2021/03/01 11:15:49;;;;;;;;;;;;;;;18.05;64.12;101965.88;5055046;28;1359;-75
2021/03/01 11:18:16;;;;;;;;;;;;;;;18.06;63.77;101965.78;5089527;28;1067;-74
2021/03/01 11:20:43;;;;;;;;;;;;;;;18.05;63.76;101960.59;5071226;28;1362;-71
2021/03/01 11:23:10;;;;;;;;;;;;;;;18.07;64.17;101971.94;5089303;28;1182;-73
2021/03/01 11:25:36;;;;;;;;;;;;;;;18.10;64.65;101959.50;5071068;28;1354;-66
2021/03/01 11:28:03;;;;;;;;;;;;;;;18.13;64.83;101961.16;5086494;28;1977;-69
2021/03/01 11:30:30;;;;;;;;;;;;;;;18.14;64.50;101961.13;5085050;28;1806;-68
2021/03/01 11:32:56;;;;;;;;;;;;;;;18.16;65.13;101947.88;5085171;28;1059;-70
2021/03/01 11:35:23;;;;;;;;;;;;;;;18.21;64.78;101956.50;5059705;28;1657;-68
2021/03/01 11:37:49;;;;;;;;;;;;;;;18.25;65.19;101956.31;5084560;28;774;-67
2021/03/01 11:40:15;;;;;;;;;;;;;;;18.24;64.77;101956.41;5069667;28;1275;-68
2021/03/01 11:42:41;;;;;;;;;;;;;;;18.17;64.35;101954.88;5087955;28;959;-69
2021/03/01 11:45:08;;;;;;;;;;;;;;;18.15;64.14;101954.09;5087446;28;1886;-68
2021/03/01 11:47:34;;;;;;;;;;;;;;;18.20;62.06;101954.78;5074557;28;1539;-70
2021/03/01 11:50:01;;;;;;;;;;;;;;;18.22;62.07;101945.00;5089979;28;1973;-69
2021/03/01 11:52:28;;;;;;;;;;;;;;;18.21;62.88;101944.16;5087968;28;777;-69
2021/03/01 11:54:54;;;;;;;;;;;;;;;18.25;63.75;101937.00;5069422;28;1335;-68
2021/03/01 11:57:20;;;;;;;;;;;;;;;18.34;64.22;101932.25;5071230;28;1531;-70
2021/03/01 11:59:48;;;;;;;;;;;;;;;18.35;64.60;101935.75;5101653;28;1338;-70
2021/03/01 12:02:14;;;;;;;;;;;;;;;18.30;64.81;101935.06;5071224;28;1873;-69
2021/03/01 12:04:41;;;;;;;;;;;;;;;18.27;64.10;101935.19;5056198;28;1477;-69
2021/03/01 12:07:08;;;;;;;;;;;;;;;18.23;64.10;101926.50;5106795;28;1170;-69
2021/03/01 12:09:34;;;;;;;;;;;;;;;18.26;64.17;101930.81;5107876;28;1905;-71
2021/03/01 12:12:00;;;;;;;;;;;;;;;18.31;64.59;101934.13;5106063;28;1493;-68
2021/03/01 12:14:27;;;;;;;;;;;;;;;18.36;65.06;101930.41;5095360;28;1312;-69
2021/03/01 12:16:53;;;;;;;;;;;;;;;18.48;64.70;101934.38;5106353;28;1493;-69
2021/03/01 12:19:20;;;;;;;;;;;;;;;18.44;65.54;101932.78;5094271;28;1078;-70
2021/03/01 12:21:46;;;;;;;;;;;;;;;18.43;64.45;101920.50;5069177;28;1625;-69
2021/03/01 12:24:14;;;;;;;;;;;;;;;18.39;64.59;101924.19;5068754;28;1359;-70
2021/03/01 12:26:41;;;;;;;;;;;;;;;18.38;63.86;101917.19;5086433;28;1492;-69
2021/03/01 12:29:08;;;;;;;;;;;;;;;18.35;64.66;101909.38;5073332;28;1905;-72
2021/03/01 12:31:34;;;;;;;;;;;;;;;18.35;65.58;101901.47;5081867;28;1598;-71
2021/03/01 12:34:02;;;;;;;;;;;;;;;18.36;65.01;101896.09;5098568;28;1032;-70
2021/03/01 12:36:29;;;;;;;;;;;;;;;18.38;64.03;101902.22;5068805;28;1906;-71
2021/03/01 12:38:55;;;;;;;;;;;;;;;18.44;64.21;101901.13;5076509;28;1622;-71
2021/03/01 12:41:22;;;;;;;;;;;;;;;18.46;63.34;101889.59;5082228;28;1319;-70
2021/03/01 12:43:48;;;;;;;;;;;;;;;18.46;65.45;101884.31;5082703;28;1051;-69
2021/03/01 12:46:15;;;;;;;;;;;;;;;18.44;63.58;101883.50;5068805;28;1283;-69
2021/03/01 12:48:41;;;;;;;;;;;;;;;18.43;63.13;101881.78;5086697;28;1934;-68
2021/03/01 12:51:08;;;;;;;;;;;;;;;18.41;64.19;101881.00;5087179;28;1366;-68
2021/03/01 12:53:34;;;;;;;;;;;;;;;18.39;64.25;101881.97;5068443;28;755;-68
2021/03/01 12:56:01;;;;;;;;;;;;;;;18.38;63.16;101870.56;5105361;28;1483;-68